Hakui, Japan
Current Conditions -  °F | °C
As of 9:00 PM on Monday 24 Nov 2014 (Local Time) from RJNT Reporting Station
Broken Clouds Broken Clouds  
Wind Chill: 54°   Ceiling: 7000
Heat Index: 54°   Visibility: 6mi
Dew Point: 48°   Wind: 2mph
Humidity: 82%   Direction: NA
Pressure: 30.06"   Gusts: NA
Location:  36.9°N, 136.77°E
Report Text: RJNT 241200Z VRB02KT 9999 FEW060 BKN070 12/09 Q1018
Loading
Personal Weather Stations






























Interactive Weather Map New forecast layout! Learn more

10-Day Weather Forecast

Advertisements
Track Severe Weather on mobile